Boeing 767-300ER с грузом посылок Amazon разбился возле Хьюстона

Транспортный Boeing 767-300ER авиакомпании Atlas Air (5Y) потерпел крушение в эстуарии реки Тринити (Trinity Bay) возле Анауака, штат Техас.

На борту было три пилота, выживших среди них нет.

Подробности

Boeing 767-375ERBCFWL, выполнявший рейс 5Y3591 для Amazon Prime Air, отправился из аэропорта Майами (MIA) в 11:33 по местному времени в Хьюстон, аэропорт Джордж Буш Интерконтинентал (IAH). Крейсерская высота 12 190 метров (эшелон FL400) была достигнута через 20 минут.

Снижение к Хьюстону началось в 12:07 по местному времени. Примерно в 12:37 авиалайнер начал резко терять высоту и упал в воду эстуария Тринити примерно в 60 километрах от аэродрома.


Boeing 767-375ERBCFWL авиакомпании Atlas Air в мокром лизинге у Amazon Prime Air, до катастрофы рейса 5Y3591


Обломки самолёта и груза в эстуарии реки Тринити

Читайте также:  Аэрофлот разместил самый большой заказ на Superjet в истории

История самолёта

Самолёт с регистрационным номером N1217A (серийный 25865/430) совершил свой первый полёт 21 апреля 1992 года и был поставлен — в пассажирской версии — China Southern Airlines (CZ). В 1997 году перешёл чилийской LAN Airlines (LA); в 2008-м прошёл модернизацию: на крыло были установлены законцовки.

В 2014 году выведен из флота, конвертирован в грузовую версию и приобретён американской Atlas Air. С 30 апреля 2017 года использовался корпорацией Amazon для собственных воздушных перевозок в подразделении Prime Air.

Показания METAR

KIAH 231953Z 31011KT 10SM SCT039 BKN090 BKN250 23/13 A2990 RMK AO2 SLP123 T02330128=
KIAH 231853Z 32011G19KT 10SM SCT035 BKN080 BKN250 21/12 A2991 RMK AO2 SLP129 T02110117=
KIAH 231802Z 32015G24KT 10SM FEW035 SCT060 BKN080 BKN250 22/12 A2992 RMK AO2 T02220117=
KIAH 231753Z 32014G19KT 9SM FEW020 SCT033 BKN060 21/12 A2992 RMK AO2 PK WND 33029/1701 WSHFT 1653 RAB01E13 SLP131 P0000 60000 T02110122 10261 20189 53015=

Читайте также:  LOT начинает рейсы в Лондон Сити

Ещё на эту тему

Boeing’у из Ташкента полосы Пулково не хватило
Boeing 767-300ER авиакомпании Uzbekistan Airways (HY) перебежал полосу при посадке в аэропорту Пулково (LED).

Инцидент произошёл приблизительно в 22:00 по местному времени в субботу, 2 марта. На борту находились 241 пассажир и 8 членов экипажа; вс…

Amazon наращивает авиаперевозки
Amazon Air продолжает расширение авиаперевозок под собственным брендом.

Для этого ритейлер продлевает действующие договоры аренды на 20 широкофюзеляжных Boeing 767-300ERF с Air Transport Services Group (ATSG), добавит к ним ещё 10 таких же и получ…

UPS поддержала программу Boeing 747-8 твёрдым заказом
United Parcel Service (UPS) полностью конвертировала опцион на 14 самолётов Boeing 747-8 в грузовой конфигурации в твёрдые заказы.

Читайте также:  Red Wings отказалась от Airbus A220

Подробности сделки:

конвертация была оформлена 1 февраля;
опцион (право покупки впоследствии на заранее огов…

Пожар при взлёте Boeing 767 компании American Airlines: результаты расследования
Компания General Electric выпустила предписание авиакомпаниям, эксплуатирующим двигатели CF6, провести регулярную инспекцию первой и второй ступеней турбины высокого давления.

Решение производителя является следствием расследования инцидента от 28…

Related Posts